Time;durP1;ratioP1;P1;durP2;ratioP2;P2;SDS_P1;SDS_P2;PMS_P1;PMS_P2;Temp;Humidity;BMP_temperature;BMP_pressure;BME280_temperature;BME280_humidity;BME280_pressure;Samples;Min_cycle;Max_cycle;Signal;HPM_P1;HPM_P2
2022/04/14 00:02:00;;;;;;;0.10;0.10;;;8.20;1.00;;;;;;5096121;28;20436;-72
2022/04/14 00:04:25;;;;;;;0.10;0.10;;;8.20;1.00;;;;;;5096189;28;20063;-72
2022/04/14 00:06:52;;;;;;;0.10;0.10;;;8.00;1.00;;;;;;5095937;28;20398;-72
2022/04/14 00:09:18;;;;;;;0.50;0.50;;;7.90;1.00;;;;;;5096035;28;20113;-72
2022/04/14 00:11:44;;;;;;;0.10;0.10;;;7.90;2.40;;;;;;5095757;28;20040;-72
2022/04/14 00:14:10;;;;;;;0.10;0.10;;;7.90;2.40;;;;;;5096284;28;20501;-72
2022/04/14 00:16:35;;;;;;;0.10;0.10;;;7.80;3.70;;;;;;5095920;28;20474;-72
2022/04/14 00:19:01;;;;;;;0.10;0.10;;;7.80;5.20;;;;;;5095918;28;20474;-72
2022/04/14 00:21:27;;;;;;;0.10;0.10;;;8.00;5.00;;;;;;5095869;28;20048;-72
2022/04/14 00:23:53;;;;;;;0.10;0.10;;;8.10;5.00;;;;;;5096140;28;20494;-72
2022/04/14 00:26:19;;;;;;;0.13;0.13;;;8.10;2.20;;;;;;5094265;28;20032;-72
2022/04/14 00:28:46;;;;;;;0.13;0.13;;;8.10;2.80;;;;;;5095967;28;20047;-72
2022/04/14 00:31:11;;;;;;;0.10;0.10;;;8.10;1.70;;;;;;5095376;28;20044;-72
2022/04/14 00:33:37;;;;;;;0.30;0.30;;;8.10;1.40;;;;;;5095320;28;20051;-72
2022/04/14 00:36:04;;;;;;;0.70;0.45;;;8.10;2.80;;;;;;5095309;28;20107;-72
2022/04/14 00:38:30;;;;;;;0.20;0.20;;;8.00;3.20;;;;;;5095310;28;20044;-72
2022/04/14 00:40:56;;;;;;;0.10;0.10;;;8.00;3.20;;;;;;5095462;28;20040;-72
2022/04/14 00:43:29;;;;;;;0.10;0.10;;;7.90;6.10;;;;;;5095445;28;20126;-72
2022/04/14 00:45:55;;;;;;;0.63;0.47;;;7.80;7.80;;;;;;5094897;28;20532;-72
2022/04/14 00:48:21;;;;;;;0.10;0.10;;;7.90;9.00;;;;;;5095135;28;20040;-72
2022/04/14 00:50:46;;;;;;;0.17;0.17;;;7.80;9.60;;;;;;5095302;28;20084;-72
2022/04/14 00:53:13;;;;;;;0.10;0.10;;;7.80;12.60;;;;;;5095297;28;20517;-72
2022/04/14 00:55:39;;;;;;;0.25;0.25;;;7.90;12.00;;;;;;5095034;28;20048;-72
2022/04/14 00:58:05;;;;;;;0.22;0.22;;;8.00;11.50;;;;;;5095243;28;20036;-72
2022/04/14 01:00:31;;;;;;;0.20;0.20;;;8.00;9.80;;;;;;5095393;28;20047;-72
2022/04/14 01:02:57;;;;;;;0.10;0.10;;;7.90;12.50;;;;;;5094889;28;20505;-72
2022/04/14 01:05:24;;;;;;;0.30;0.30;;;7.90;12.20;;;;;;5095405;28;20070;-72
2022/04/14 01:07:52;;;;;;;0.20;0.20;;;8.00;12.00;;;;;;5094819;28;20176;-72
2022/04/14 01:10:18;;;;;;;0.10;0.10;;;7.90;12.50;;;;;;5095112;28;20498;-72
2022/04/14 01:12:44;;;;;;;0.20;0.20;;;7.80;13.70;;;;;;5095314;28;20063;-72
2022/04/14 01:15:13;;;;;;;0.10;0.10;;;7.70;14.60;;;;;;5095548;28;20124;-72
2022/04/14 01:17:40;;;;;;;0.20;0.20;;;7.60;15.10;;;;;;5095017;28;20483;-72
2022/04/14 01:20:08;;;;;;;0.10;0.10;;;7.50;16.10;;;;;;5094942;28;20044;-72
2022/04/14 01:22:45;;;;;;;0.10;0.10;;;7.40;20.80;;;;;;5094566;28;20036;-72
2022/04/14 01:25:11;;;;;;;0.40;0.40;;;7.40;27.80;;;;;;5094864;28;20040;-72
2022/04/14 01:27:37;;;;;;;0.10;0.10;;;7.30;28.50;;;;;;5094980;28;20148;-72
2022/04/14 01:30:03;;;;;;;0.22;0.22;;;7.30;35.00;;;;;;5095537;28;20071;-72
2022/04/14 01:32:29;;;;;;;0.40;0.40;;;7.30;36.50;;;;;;5094782;28;20123;-72
2022/04/14 01:34:55;;;;;;;0.20;0.20;;;7.40;36.60;;;;;;5094675;28;20075;-72
2022/04/14 01:37:21;;;;;;;0.10;0.10;;;7.40;37.50;;;;;;5094818;28;20043;-72
2022/04/14 01:39:46;;;;;;;0.10;0.10;;;7.30;36.70;;;;;;5094767;28;20448;-72
2022/04/14 01:42:13;;;;;;;0.13;0.13;;;7.20;33.90;;;;;;5094632;28;20119;-72
2022/04/14 01:44:38;;;;;;;0.10;0.10;;;7.20;37.30;;;;;;5095017;28;20513;-72
2022/04/14 01:47:05;;;;;;;0.57;0.57;;;7.20;36.40;;;;;;5094417;28;20032;-72
2022/04/14 01:49:31;;;;;;;0.30;0.30;;;7.20;33.90;;;;;;5094313;28;20571;-72
2022/04/14 01:51:57;;;;;;;0.03;0.03;;;7.00;34.40;;;;;;5094194;28;20044;-72
2022/04/14 01:54:23;;;;;;;0.57;0.57;;;7.00;37.00;;;;;;5094470;28;20043;-72
2022/04/14 01:56:49;;;;;;;0.22;0.22;;;7.00;37.70;;;;;;5095255;28;20067;-71
2022/04/14 01:59:15;;;;;;;0.08;0.08;;;7.00;39.10;;;;;;5098017;28;20570;-72
2022/04/14 02:01:41;;;;;;;1.65;0.70;;;6.90;36.00;;;;;;5098180;28;20032;-72
2022/04/14 02:04:07;;;;;;;0.10;0.10;;;6.80;36.60;;;;;;5097969;28;20043;-72
2022/04/14 02:06:33;;;;;;;0.20;0.20;;;6.80;42.40;;;;;;5098409;28;20036;-72
2022/04/14 02:08:59;;;;;;;0.28;0.28;;;6.90;43.50;;;;;;5098125;28;20486;-72
2022/04/14 02:11:25;;;;;;;0.05;0.05;;;6.80;43.60;;;;;;5097971;28;20131;-72
2022/04/14 02:13:51;;;;;;;0.10;0.10;;;6.80;44.50;;;;;;5098047;28;20070;-72
2022/04/14 02:16:16;;;;;;;0.10;0.10;;;6.80;44.50;;;;;;5097704;28;20405;-72
2022/04/14 02:18:43;;;;;;;0.10;0.10;;;6.80;45.30;;;;;;5097677;28;20091;-72
2022/04/14 02:21:09;;;;;;;0.00;0.00;;;6.60;41.80;;;;;;5097774;28;20040;-72
2022/04/14 02:23:35;;;;;;;1.27;0.65;;;6.60;44.40;;;;;;5097871;28;20040;-72
2022/04/14 02:26:00;;;;;;;0.10;0.10;;;6.70;47.60;;;;;;5097350;28;20088;-72
2022/04/14 02:28:26;;;;;;;0.10;0.10;;;6.60;45.00;;;;;;5097739;28;20101;-72
2022/04/14 02:30:52;;;;;;;0.10;0.10;;;6.60;43.20;;;;;;5097874;28;20036;-72
2022/04/14 02:33:18;;;;;;;0.10;0.10;;;6.50;42.00;;;;;;5097688;28;20038;-72
2022/04/14 02:35:44;;;;;;;0.10;0.10;;;6.60;45.10;;;;;;5097609;28;20040;-72
2022/04/14 02:38:10;;;;;;;0.32;0.32;;;6.60;44.20;;;;;;5097872;28;20126;-72
2022/04/14 02:40:36;;;;;;;0.20;0.20;;;6.60;39.70;;;;;;5097518;28;20051;-72
2022/04/14 02:43:02;;;;;;;0.50;0.50;;;6.50;42.00;;;;;;5097695;28;20033;-72
2022/04/14 02:45:27;;;;;;;0.10;0.10;;;6.40;41.50;;;;;;5097735;28;20044;-72
2022/04/14 02:47:54;;;;;;;0.75;0.38;;;6.30;42.40;;;;;;5097693;28;20398;-72
2022/04/14 02:50:21;;;;;;;0.15;0.15;;;6.30;44.00;;;;;;5097582;28;20040;-72
2022/04/14 02:52:51;;;;;;;0.32;0.32;;;6.30;43.60;;;;;;5097601;28;20111;-72
2022/04/14 02:55:18;;;;;;;0.20;0.20;;;6.40;50.50;;;;;;5097202;28;20123;-72
2022/04/14 02:57:44;;;;;;;0.10;0.10;;;6.40;49.90;;;;;;5097397;28;20093;-72
2022/04/14 03:00:11;;;;;;;0.10;0.10;;;6.40;49.70;;;;;;5097454;28;20051;-72
2022/04/14 03:02:38;;;;;;;1.30;0.90;;;6.40;47.80;;;;;;5097441;28;20093;-72
2022/04/14 03:05:05;;;;;;;0.10;0.10;;;6.40;45.40;;;;;;5097456;28;20040;-72
2022/04/14 03:07:31;;;;;;;0.10;0.10;;;6.30;41.50;;;;;;5097241;28;20043;-72
2022/04/14 03:09:57;;;;;;;0.20;0.20;;;6.30;44.70;;;;;;5097413;28;20517;-72
2022/04/14 03:12:23;;;;;;;0.10;0.10;;;6.30;50.00;;;;;;5097220;28;20036;-72
2022/04/14 03:14:50;;;;;;;0.20;0.20;;;6.20;49.40;;;;;;5096888;28;20036;-72
2022/04/14 03:17:16;;;;;;;0.10;0.10;;;6.30;53.60;;;;;;5097138;28;20028;-72
2022/04/14 03:19:42;;;;;;;0.10;0.10;;;6.30;48.20;;;;;;5472653;22;20060;-72
2022/04/14 03:22:08;;;;;;;0.28;0.28;;;6.30;50.40;;;;;;5076491;28;20045;-72
2022/04/14 03:24:34;;;;;;;0.10;0.10;;;6.20;50.40;;;;;;5077004;28;20047;-71
2022/04/14 03:27:00;;;;;;;0.20;0.10;;;6.20;48.40;;;;;;5076786;28;20504;-72
2022/04/14 03:29:32;;;;;;;0.10;0.10;;;6.20;50.00;;;;;;5076694;28;20123;-72
2022/04/14 03:31:58;;;;;;;0.10;0.10;;;6.20;46.60;;;;;;5076400;28;20098;-72
2022/04/14 03:34:24;;;;;;;0.40;0.32;;;6.20;43.10;;;;;;5076191;28;20051;-72
2022/04/14 03:36:50;;;;;;;0.08;0.08;;;6.10;42.70;;;;;;5076618;28;20363;-72
2022/04/14 03:39:17;;;;;;;0.10;0.10;;;6.10;48.60;;;;;;5076543;28;20041;-72
2022/04/14 03:41:43;;;;;;;0.15;0.15;;;6.00;47.60;;;;;;5076144;28;20071;-71
2022/04/14 03:46:41;;;;;;;0.25;0.25;;;6.00;50.20;;;;;;5074091;28;20041;-72
2022/04/14 03:49:11;;;;;;;0.20;0.20;;;5.90;50.80;;;;;;5076007;28;20060;-72
2022/04/14 03:51:37;;;;;;;0.10;0.10;;;6.00;47.30;;;;;;5075744;28;20097;-73
2022/04/14 03:54:04;;;;;;;0.47;0.47;;;5.90;48.80;;;;;;5075911;28;20111;-72
2022/04/14 03:56:31;;;;;;;0.10;0.10;;;5.80;52.10;;;;;;5075875;28;20364;-73
2022/04/14 03:59:00;;;;;;;0.10;0.10;;;5.80;55.00;;;;;;5073048;28;20041;-73
2022/04/14 04:01:26;;;;;;;0.10;0.10;;;5.80;55.90;;;;;;5072598;28;20040;-72
2022/04/14 04:03:53;;;;;;;0.20;0.20;;;5.80;54.00;;;;;;5065208;28;20040;-72
2022/04/14 04:06:19;;;;;;;0.32;0.30;;;5.80;55.00;;;;;;5074409;28;20028;-73
2022/04/14 04:08:46;;;;;;;0.30;0.30;;;5.90;55.90;;;;;;5066540;28;20037;-72
2022/04/14 04:11:12;;;;;;;0.32;0.32;;;5.80;53.30;;;;;;5075139;28;20036;-72
2022/04/14 04:13:39;;;;;;;0.30;0.30;;;5.80;56.70;;;;;;5074897;28;20093;-72
2022/04/14 04:16:05;;;;;;;0.20;0.20;;;5.80;58.60;;;;;;5075178;28;20037;-73
2022/04/14 04:18:33;;;;;;;0.20;0.20;;;5.80;59.80;;;;;;5069001;28;20548;-72
2022/04/14 04:21:00;;;;;;;4.90;0.57;;;5.80;57.00;;;;;;5067043;28;20047;-72
2022/04/14 04:23:26;;;;;;;0.10;0.10;;;5.80;48.30;;;;;;5070336;28;20090;-72
2022/04/14 04:25:52;;;;;;;0.10;0.10;;;5.90;53.00;;;;;;5065895;28;20103;-72
2022/04/14 04:28:18;;;;;;;0.52;0.52;;;5.80;50.40;;;;;;5072473;28;20119;-72
2022/04/14 04:30:44;;;;;;;0.10;0.10;;;5.80;49.20;;;;;;5073966;28;20044;-72
2022/04/14 04:33:11;;;;;;;0.30;0.30;;;5.80;51.20;;;;;;5075434;28;20051;-72
2022/04/14 04:35:37;;;;;;;0.17;0.17;;;5.70;49.70;;;;;;5061996;28;20483;-72
2022/04/14 04:38:04;;;;;;;0.10;0.10;;;5.70;51.00;;;;;;5073406;28;20047;-72
2022/04/14 04:40:30;;;;;;;0.10;0.10;;;5.60;53.60;;;;;;5075215;28;20044;-72
2022/04/14 04:42:56;;;;;;;0.65;0.60;;;5.60;50.00;;;;;;5075078;28;20072;-72
2022/04/14 04:45:22;;;;;;;0.25;0.20;;;5.60;55.20;;;;;;5070982;28;20064;-71
2022/04/14 04:47:48;;;;;;;0.10;0.10;;;5.70;53.10;;;;;;5061132;28;20036;-72
2022/04/14 04:50:14;;;;;;;0.30;0.30;;;5.60;51.40;;;;;;5060897;28;20090;-72
2022/04/14 04:52:41;;;;;;;0.15;0.15;;;5.60;53.00;;;;;;5054560;28;20037;-72
2022/04/14 04:55:07;;;;;;;0.32;0.32;;;5.70;55.90;;;;;;5054817;28;20475;-72
2022/04/14 04:57:33;;;;;;;0.10;0.10;;;5.60;50.20;;;;;;5054432;28;20035;-72
2022/04/14 04:59:59;;;;;;;0.10;0.10;;;5.60;54.20;;;;;;5054222;28;20558;-72
2022/04/14 05:02:26;;;;;;;0.10;0.10;;;5.50;51.40;;;;;;5055576;28;20040;-73
2022/04/14 05:04:52;;;;;;;0.13;0.13;;;5.60;56.30;;;;;;5062240;28;20044;-73
2022/04/14 05:07:18;;;;;;;0.28;0.28;;;5.70;54.00;;;;;;5074427;28;20055;-72
2022/04/14 05:09:45;;;;;;;0.17;0.17;;;5.80;54.50;;;;;;5074726;28;20043;-72
2022/04/14 05:12:11;;;;;;;0.30;0.30;;;5.70;43.30;;;;;;5074068;28;20032;-72
2022/04/14 05:14:37;;;;;;;0.32;0.32;;;5.70;48.20;;;;;;5073422;28;20135;-72
2022/04/14 05:17:04;;;;;;;0.20;0.20;;;5.70;35.30;;;;;;5074214;28;20109;-72
2022/04/14 05:19:30;;;;;;;0.10;0.10;;;5.60;35.10;;;;;;5074553;28;20127;-73
2022/04/14 05:21:57;;;;;;;0.30;0.30;;;5.70;32.20;;;;;;5074214;28;20052;-72
2022/04/14 05:24:23;;;;;;;0.10;0.10;;;5.70;37.10;;;;;;5074238;28;20517;-72
2022/04/14 05:26:49;;;;;;;0.10;0.10;;;5.80;34.20;;;;;;5074405;28;20028;-72
2022/04/14 05:29:15;;;;;;;0.10;0.10;;;5.90;29.10;;;;;;5074024;28;20068;-73
2022/04/14 05:31:42;;;;;;;0.10;0.10;;;5.90;21.80;;;;;;5075016;28;20040;-73
2022/04/14 05:34:08;;;;;;;0.40;0.40;;;6.10;27.90;;;;;;5078219;28;20123;-72
2022/04/14 05:36:34;;;;;;;0.10;0.10;;;6.10;21.40;;;;;;5078597;28;20063;-72
2022/04/14 05:39:00;;;;;;;0.28;0.28;;;6.20;20.40;;;;;;5078357;28;20044;-71
2022/04/14 05:41:26;;;;;;;0.35;0.35;;;6.30;13.00;;;;;;5078168;28;20041;-72
2022/04/14 05:43:52;;;;;;;0.10;0.10;;;6.60;5.90;;;;;;5078195;28;20048;-72
2022/04/14 05:46:19;;;;;;;0.10;0.10;;;7.00;4.20;;;;;;5067627;28;20052;-72
2022/04/14 05:48:45;;;;;;;0.40;0.40;;;7.00;1.00;;;;;;5067283;28;20071;-72
2022/04/14 05:51:10;;;;;;;0.10;0.10;;;7.00;1.00;;;;;;5060870;28;20482;-71
2022/04/14 05:53:36;;;;;;;0.10;0.10;;;7.70;1.00;;;;;;5065035;28;20119;-71
2022/04/14 05:56:02;;;;;;;0.10;0.10;;;8.00;1.00;;;;;;5074433;28;20040;-72
2022/04/14 05:58:29;;;;;;;0.13;0.13;;;8.40;1.00;;;;;;5077985;28;20032;-71
2022/04/14 06:00:55;;;;;;;0.10;0.10;;;9.50;1.00;;;;;;5077265;28;20051;-73
2022/04/14 06:03:21;;;;;;;0.10;0.10;;;10.40;1.00;;;;;;5077702;28;20028;-72
2022/04/14 06:05:47;;;;;;;0.20;0.20;;;11.40;1.00;;;;;;5077749;28;20039;-72
2022/04/14 06:08:14;;;;;;;0.15;0.15;;;12.00;1.00;;;;;;5077045;28;20111;-72
2022/04/14 06:10:40;;;;;;;0.10;0.10;;;13.10;1.00;;;;;;5075192;28;20037;-72
2022/04/14 06:13:07;;;;;;;0.40;0.40;;;13.90;1.00;;;;;;5076442;28;20032;-73
2022/04/14 06:15:33;;;;;;;0.22;0.22;;;14.20;1.00;;;;;;5077217;28;20036;-72
2022/04/14 06:17:59;;;;;;;0.15;0.15;;;14.80;1.00;;;;;;5076965;28;20135;-73
2022/04/14 06:20:26;;;;;;;0.10;0.10;;;14.70;1.00;;;;;;5076874;28;20045;-73
2022/04/14 06:22:52;;;;;;;0.10;0.10;;;14.80;1.00;;;;;;5077274;28;20516;-73
2022/04/14 06:25:22;;;;;;;0.43;0.43;;;15.70;1.00;;;;;;5072806;28;20047;-74
2022/04/14 06:27:50;;;;;;;2.28;0.40;;;16.30;1.00;;;;;;5075422;28;20033;-74
2022/04/14 06:30:18;;;;;;;0.20;0.20;;;16.20;1.00;;;;;;5076906;28;20036;-73
2022/04/14 06:33:05;;;;;;;0.10;0.10;;;15.80;1.00;;;;;;5076391;28;20033;-73
2022/04/14 06:35:31;;;;;;;0.20;0.20;;;14.50;1.00;;;;;;5076804;28;20123;-73
2022/04/14 06:37:57;;;;;;;0.40;0.40;;;13.40;1.00;;;;;;5076527;28;20033;-73
2022/04/14 06:40:24;;;;;;;0.60;0.28;;;13.50;1.00;;;;;;5077115;28;20101;-73
2022/04/14 06:42:50;;;;;;;0.50;0.40;;;14.10;1.00;;;;;;5076002;28;20029;-74
2022/04/14 06:45:17;;;;;;;0.10;0.10;;;13.40;1.00;;;;;;5076733;28;20074;-73
2022/04/14 06:47:43;;;;;;;0.40;0.40;;;12.50;1.00;;;;;;5077133;28;20040;-73
2022/04/14 06:50:09;;;;;;;0.30;0.30;;;11.90;1.00;;;;;;5077077;28;20059;-73
2022/04/14 06:52:38;;;;;;;0.10;0.10;;;11.90;1.00;;;;;;5077411;28;20047;-73
2022/04/14 06:55:04;;;;;;;0.30;0.30;;;12.00;1.00;;;;;;5076331;28;20067;-73
2022/04/14 06:57:30;;;;;;;0.40;0.40;;;11.80;1.00;;;;;;5076884;28;20036;-72
2022/04/14 06:59:56;;;;;;;0.43;0.43;;;12.10;1.00;;;;;;5076595;28;20390;-73
2022/04/14 07:02:22;;;;;;;0.10;0.10;;;11.70;1.00;;;;;;5077015;28;20040;-71
2022/04/14 07:04:49;;;;;;;0.40;0.40;;;11.60;1.00;;;;;;5076537;28;20042;-72
2022/04/14 07:07:14;;;;;;;0.20;0.20;;;11.60;1.00;;;;;;5076116;28;20452;-71
2022/04/14 07:09:40;;;;;;;0.30;0.30;;;11.60;1.00;;;;;;5076462;28;20032;-72
2022/04/14 07:12:07;;;;;;;1.25;1.20;;;12.00;1.00;;;;;;5076317;28;20051;-71
2022/04/14 07:14:33;;;;;;;0.20;0.20;;;12.30;1.00;;;;;;5076472;28;20543;-71
2022/04/14 07:17:00;;;;;;;0.20;0.20;;;12.40;1.00;;;;;;5076208;28;20041;-72
2022/04/14 07:19:27;;;;;;;0.20;0.20;;;12.50;1.00;;;;;;5076077;28;20097;-72
2022/04/14 07:21:54;;;;;;;0.45;0.45;;;12.50;1.00;;;;;;5075819;28;20040;-71
2022/04/14 07:24:20;;;;;;;0.70;0.68;;;12.90;1.00;;;;;;5076170;28;20129;-71
2022/04/14 07:26:46;;;;;;;0.90;0.20;;;13.20;1.00;;;;;;5076635;28;20044;-71
2022/04/14 07:29:12;;;;;;;0.50;0.35;;;13.50;1.00;;;;;;5075991;28;20098;-70
2022/04/14 07:31:40;;;;;;;0.20;0.20;;;13.70;1.00;;;;;;5076019;28;20068;-70
2022/04/14 07:34:06;;;;;;;0.30;0.30;;;13.50;1.00;;;;;;5076832;28;20448;-71
2022/04/14 07:36:32;;;;;;;0.10;0.10;;;13.30;1.00;;;;;;5074158;28;20386;-71
2022/04/14 07:38:58;;;;;;;0.10;0.10;;;13.10;1.00;;;;;;5075801;28;20028;-71
2022/04/14 07:41:26;;;;;;;1.00;0.30;;;13.00;1.00;;;;;;5076172;28;20049;-70
2022/04/14 07:43:56;;;;;;;0.15;0.15;;;13.00;1.00;;;;;;5075887;28;20044;-70
2022/04/14 07:46:22;;;;;;;0.88;0.88;;;13.10;1.00;;;;;;5076353;28;20510;-71
2022/04/14 07:48:48;;;;;;;0.20;0.20;;;13.10;1.00;;;;;;5076406;28;20086;-70
2022/04/14 07:51:14;;;;;;;0.10;0.10;;;13.10;1.00;;;;;;5076067;28;20429;-71
2022/04/14 07:53:40;;;;;;;0.40;0.40;;;13.10;1.00;;;;;;5076057;28;20040;-71
2022/04/14 07:56:06;;;;;;;0.10;0.10;;;13.20;1.00;;;;;;5075224;28;20046;-70
2022/04/14 07:58:33;;;;;;;0.28;0.28;;;13.30;1.00;;;;;;5076165;28;20051;-71
2022/04/14 08:00:59;;;;;;;0.10;0.10;;;13.30;1.00;;;;;;5073788;28;20053;-71
2022/04/14 08:03:25;;;;;;;0.50;0.50;;;13.40;1.00;;;;;;5073459;28;20386;-71
2022/04/14 08:05:50;;;;;;;0.88;0.30;;;13.50;1.00;;;;;;5059711;28;20044;-71
2022/04/14 08:08:19;;;;;;;0.13;0.13;;;13.50;1.00;;;;;;5065539;28;20038;-70
2022/04/14 08:10:47;;;;;;;0.30;0.30;;;13.70;1.00;;;;;;5073678;28;20048;-71
2022/04/14 08:13:14;;;;;;;0.30;0.30;;;13.70;1.00;;;;;;5075521;28;20036;-71
2022/04/14 08:15:41;;;;;;;0.10;0.10;;;13.70;1.00;;;;;;5075513;28;20107;-71
2022/04/14 08:18:07;;;;;;;0.10;0.10;;;14.10;1.00;;;;;;5075470;28;20582;-71
2022/04/14 08:20:35;;;;;;;0.63;0.63;;;14.40;1.00;;;;;;5073572;28;20051;-71
2022/04/14 08:23:02;;;;;;;0.10;0.10;;;14.50;1.00;;;;;;5067755;28;20135;-70
2022/04/14 08:25:31;;;;;;;0.90;0.82;;;14.50;1.00;;;;;;5055862;28;20041;-70
2022/04/14 08:27:59;;;;;;;0.28;0.28;;;14.30;1.00;;;;;;5056499;28;20037;-70
2022/04/14 08:30:27;;;;;;;0.30;0.30;;;14.20;1.00;;;;;;5061271;28;20048;-70
2022/04/14 08:32:54;;;;;;;0.35;0.35;;;14.20;1.00;;;;;;5073274;28;20111;-70
2022/04/14 08:35:21;;;;;;;0.20;0.20;;;14.20;1.00;;;;;;5064566;28;20040;-70
2022/04/14 08:37:48;;;;;;;0.30;0.30;;;14.00;1.00;;;;;;5075066;28;20064;-70
2022/04/14 08:40:16;;;;;;;0.10;0.10;;;14.00;1.00;;;;;;5071703;28;20044;-70
2022/04/14 08:43:01;;;;;;;0.10;0.10;;;14.10;1.00;;;;;;5075251;28;20033;-70
2022/04/14 08:45:37;;;;;;;0.13;0.13;;;14.00;1.00;;;;;;5074600;28;20064;-70
2022/04/14 08:48:04;;;;;;;0.10;0.10;;;14.00;1.00;;;;;;5075306;28;20051;-70
2022/04/14 08:50:32;;;;;;;0.20;0.20;;;14.10;1.00;;;;;;5074856;28;20090;-70
2022/04/14 08:52:59;;;;;;;0.10;0.10;;;14.10;1.00;;;;;;5055091;28;20033;-70
2022/04/14 08:55:25;;;;;;;0.10;0.10;;;14.30;1.00;;;;;;5055176;28;20076;-70
2022/04/14 08:57:52;;;;;;;0.10;0.10;;;14.30;1.00;;;;;;5054754;28;20484;-70
2022/04/14 09:00:18;;;;;;;0.17;0.17;;;14.40;1.00;;;;;;5054497;28;20387;-70
2022/04/14 09:02:50;;;;;;;0.20;0.20;;;14.30;1.00;;;;;;5063678;28;20032;-70
2022/04/14 09:05:17;;;;;;;0.10;0.10;;;14.40;1.00;;;;;;5074504;28;20410;-70
2022/04/14 09:07:52;;;;;;;0.73;0.73;;;14.40;1.00;;;;;;5075239;28;20090;-70
2022/04/14 09:10:19;;;;;;;0.30;0.30;;;14.40;1.00;;;;;;5074683;28;20123;-70
2022/04/14 09:12:49;;;;;;;0.20;0.20;;;14.40;1.00;;;;;;5074966;28;20516;-70
2022/04/14 09:15:16;;;;;;;0.20;0.20;;;14.60;1.00;;;;;;5075051;28;20063;-70
2022/04/14 09:17:42;;;;;;;0.20;0.20;;;14.50;1.00;;;;;;5074505;28;20043;-70
2022/04/14 09:20:36;;;;;;;0.10;0.10;;;14.50;1.00;;;;;;5074534;28;20036;-70
2022/04/14 09:23:21;;;;;;;0.30;0.30;;;14.80;1.00;;;;;;5074759;28;20032;-70
2022/04/14 09:25:48;;;;;;;0.10;0.10;;;14.60;1.00;;;;;;5074229;28;20039;-70
2022/04/14 09:28:19;;;;;;;0.17;0.17;;;14.60;1.00;;;;;;5074563;28;20044;-70
2022/04/14 09:31:09;;;;;;;0.10;0.10;;;14.70;1.00;;;;;;5074614;28;20063;-70
2022/04/14 09:33:43;;;;;;;4.20;0.40;;;15.00;1.00;;;;;;5075029;28;20044;-70
2022/04/14 09:36:18;;;;;;;0.20;0.20;;;14.90;1.00;;;;;;5074908;28;20028;-70
2022/04/14 09:39:01;;;;;;;0.10;0.10;;;14.90;1.00;;;;;;5074453;28;20526;-70
2022/04/14 09:41:40;;;;;;;0.10;0.10;;;14.90;1.00;;;;;;5074501;28;20070;-70
2022/04/14 09:44:10;;;;;;;0.10;0.10;;;14.90;1.00;;;;;;5073875;28;20032;-70
2022/04/14 09:46:38;;;;;;;0.20;0.20;;;15.00;1.00;;;;;;5074239;28;20052;-70
2022/04/14 09:49:12;;;;;;;0.10;0.10;;;15.10;1.00;;;;;;5074243;28;20093;-70
2022/04/14 09:51:41;;;;;;;0.10;0.10;;;15.20;1.00;;;;;;5074501;28;20151;-70
2022/04/14 09:54:13;;;;;;;0.10;0.10;;;15.10;1.00;;;;;;5074126;28;20066;-70
2022/04/14 09:56:42;;;;;;;0.10;0.10;;;15.40;1.00;;;;;;5074575;28;20040;-71
2022/04/14 09:59:09;;;;;;;0.10;0.10;;;15.60;1.00;;;;;;5073373;28;20052;-69
2022/04/14 10:01:36;;;;;;;0.10;0.10;;;15.90;1.00;;;;;;5060465;28;20522;-69
2022/04/14 10:04:04;;;;;;;0.10;0.10;;;15.90;1.00;;;;;;5064382;28;20127;-69
2022/04/14 10:06:30;;;;;;;0.10;0.10;;;16.30;1.00;;;;;;5054578;28;20041;-69
2022/04/14 10:08:57;;;;;;;0.10;0.10;;;16.50;1.00;;;;;;5072861;28;20047;-69
2022/04/14 10:11:33;;;;;;;3.85;1.00;;;16.50;1.00;;;;;;5072041;28;20039;-69
2022/04/14 10:14:18;;;;;;;0.20;0.20;;;16.60;1.00;;;;;;5052594;28;20098;-69
2022/04/14 10:16:46;;;;;;;0.10;0.10;;;16.30;1.00;;;;;;5063521;28;20033;-69
2022/04/14 10:19:13;;;;;;;0.30;0.30;;;16.40;1.00;;;;;;5069292;28;20059;-69
2022/04/14 10:21:39;;;;;;;0.20;0.20;;;16.10;1.00;;;;;;5076220;28;20525;-69
2022/04/14 10:24:06;;;;;;;0.20;0.20;;;15.90;1.00;;;;;;5076431;28;20040;-69
2022/04/14 10:26:35;;;;;;;0.10;0.10;;;15.90;1.00;;;;;;5074763;28;20032;-69
2022/04/14 10:29:04;;;;;;;0.10;0.10;;;16.00;1.00;;;;;;5074597;28;20044;-69
2022/04/14 10:31:32;;;;;;;0.10;0.10;;;16.30;1.00;;;;;;5071432;28;20040;-69
2022/04/14 10:34:04;;;;;;;0.10;0.10;;;16.80;1.00;;;;;;5059737;28;20039;-69
2022/04/14 10:36:32;;;;;;;0.10;0.10;;;17.30;1.00;;;;;;5067821;28;20084;-70
2022/04/14 10:38:59;;;;;;;0.10;0.10;;;17.40;1.00;;;;;;5055594;28;20123;-70
2022/04/14 10:41:31;;;;;;;0.17;0.17;;;17.80;1.00;;;;;;5056239;28;20106;-70
2022/04/14 10:44:02;;;;;;;0.20;0.20;;;17.80;1.00;;;;;;5067254;28;20040;-69
2022/04/14 10:46:36;;;;;;;0.10;0.10;;;17.90;1.00;;;;;;5074966;28;20057;-70
2022/04/14 10:49:16;;;;;;;0.30;0.30;;;17.80;1.00;;;;;;5066362;28;20048;-70
2022/04/14 10:51:43;;;;;;;0.30;0.30;;;18.10;1.00;;;;;;5056655;28;20513;-70
2022/04/14 10:54:11;;;;;;;0.13;0.13;;;18.10;1.00;;;;;;5057425;28;20041;-70
2022/04/14 10:56:37;;;;;;;0.32;0.32;;;18.10;1.00;;;;;;5057665;28;20045;-70
2022/04/14 10:59:41;;;;;;;0.45;0.38;;;18.20;1.00;;;;;;5057064;28;20103;-70
2022/04/14 11:02:07;;;;;;;0.85;0.50;;;18.40;1.00;;;;;;5056122;28;20052;-71
2022/04/14 11:04:42;;;;;;;0.10;0.10;;;18.70;1.00;;;;;;5076202;28;20028;-71
2022/04/14 11:07:18;;;;;;;0.65;0.60;;;18.90;1.00;;;;;;5063307;28;20041;-71
2022/04/14 11:09:49;;;;;;;0.22;0.22;;;18.70;1.00;;;;;;5057398;28;20033;-71
2022/04/14 11:12:22;;;;;;;0.10;0.10;;;18.60;1.00;;;;;;5056755;28;20048;-71
2022/04/14 11:15:09;;;;;;;0.10;0.10;;;18.80;1.00;;;;;;5057102;28;20033;-71
2022/04/14 11:17:38;;;;;;;0.22;0.22;;;18.70;1.00;;;;;;5064871;28;20040;-71
2022/04/14 11:20:44;;;;;;;0.20;0.20;;;18.80;1.00;;;;;;5077189;28;20029;-71
2022/04/14 11:23:17;;;;;;;0.10;0.10;;;19.00;1.00;;;;;;5063134;28;20495;-71
2022/04/14 11:25:49;;;;;;;0.20;0.20;;;19.10;1.00;;;;;;5075581;28;20119;-72
2022/04/14 11:28:28;;;;;;;0.10;0.10;;;19.50;1.00;;;;;;5076825;28;20043;-71
2022/04/14 11:31:00;;;;;;;0.20;0.20;;;19.70;1.00;;;;;;5070373;28;20110;-72
2022/04/14 11:33:31;;;;;;;0.15;0.15;;;19.20;1.00;;;;;;5071541;28;20033;-72
2022/04/14 11:36:19;;;;;;;0.10;0.10;;;19.30;1.00;;;;;;5061593;28;20065;-71
2022/04/14 11:39:08;;;;;;;0.10;0.10;;;19.50;1.00;;;;;;5057834;28;20037;-71
2022/04/14 11:42:01;;;;;;;0.20;0.20;;;19.60;1.00;;;;;;5075549;28;20040;-72
2022/04/14 11:44:32;;;;;;;0.10;0.10;;;19.90;1.00;;;;;;5067216;28;20102;-72
2022/04/14 11:47:00;;;;;;;0.20;0.20;;;19.60;1.00;;;;;;5074013;28;20040;-72
2022/04/14 11:49:28;;;;;;;0.20;0.20;;;19.70;1.00;;;;;;5076034;28;20040;-73
2022/04/14 11:52:02;;;;;;;0.25;0.25;;;19.50;1.00;;;;;;5056902;28;20364;-73
2022/04/14 11:54:31;;;;;;;0.17;0.17;;;19.40;1.00;;;;;;5058917;28;20530;-73
2022/04/14 11:57:06;;;;;;;0.30;0.30;;;19.30;1.00;;;;;;5076263;28;20130;-73
2022/04/14 11:59:36;;;;;;;0.20;0.20;;;19.20;1.00;;;;;;5076219;28;20052;-73
2022/04/14 12:02:04;;;;;;;0.20;0.20;;;19.30;1.00;;;;;;5071382;28;20530;-73
2022/04/14 12:04:46;;;;;;;0.10;0.10;;;19.10;1.00;;;;;;5055745;28;20102;-74
2022/04/14 12:07:13;;;;;;;0.30;0.30;;;19.50;1.00;;;;;;5056058;28;20483;-74
2022/04/14 12:09:42;;;;;;;0.40;0.40;;;19.70;1.00;;;;;;5060629;28;20041;-73
2022/04/14 12:12:19;;;;;;;0.68;0.68;;;20.00;1.00;;;;;;5058191;28;20048;-71
2022/04/14 12:14:50;;;;;;;0.17;0.17;;;20.00;1.00;;;;;;5067268;28;20503;-71
2022/04/14 12:17:22;;;;;;;0.10;0.10;;;19.70;1.00;;;;;;5066964;28;20101;-71
2022/04/14 12:19:52;;;;;;;0.10;0.10;;;20.00;1.00;;;;;;5075650;28;20166;-71
2022/04/14 12:22:18;;;;;;;;;;;20.20;1.00;;;;;;5076171;28;20080;-71
2022/04/14 12:30:21;;;;;;;0.30;0.30;;;;;;;;;;5071190;28;20391;-71
2022/04/14 12:32:48;;;;;;;0.20;0.20;;;;;;;;;;5066069;28;20129;-69
2022/04/14 12:35:49;;;;;;;0.10;0.10;;;;;;;;;;5052127;28;20060;-70
2022/04/14 12:38:17;;;;;;;0.20;0.20;;;;;;;;;;4995165;28;20479;-69
2022/04/14 12:41:12;;;;;;;0.30;0.30;;;;;;;;;;5043963;28;20076;-69
2022/04/14 12:43:42;;;;;;;0.20;0.20;;;;;;;;;;5045144;28;20045;-69
2022/04/14 12:46:41;;;;;;;0.20;0.20;;;;;;;;;;5055131;28;20122;-69
2022/04/14 12:49:09;;;;;;;0.22;0.22;;;;;;;;;;5009375;28;20128;-69
2022/04/14 12:51:36;;;;;;;0.30;0.30;;;;;;;;;;5038541;28;20048;-69
2022/04/14 12:54:03;;;;;;;0.20;0.20;;;;;;;;;;5069035;28;20036;-69
2022/04/14 12:56:30;;;;;;;0.20;0.20;;;;;;;;;;5070623;28;20120;-69
2022/04/14 12:59:16;;;;;;;0.20;0.20;;;;;;;;;;5057354;28;20484;-69
2022/04/14 13:01:49;;;;;;;0.10;0.10;;;;;;;;;;5031780;28;20042;-69
2022/04/14 13:04:16;;;;;;;0.20;0.20;;;;;;;;;;5031314;28;20129;-69
2022/04/14 13:06:56;;;;;;;0.55;0.55;;;;;;;;;;5051332;28;20049;-69
2022/04/14 13:09:22;;;;;;;0.10;0.10;;;;;;;;;;5051407;28;20119;-69
2022/04/14 13:11:51;;;;;;;0.30;0.30;;;;;;;;;;5061868;28;20045;-70
2022/04/14 13:14:20;;;;;;;0.30;0.30;;;;;;;;;;5056394;28;20040;-70
2022/04/14 13:16:47;;;;;;;0.25;0.25;;;;;;;;;;5070988;28;20073;-70
2022/04/14 13:19:13;;;;;;;0.20;0.20;;;;;;;;;;5064673;28;20091;-70
2022/04/14 13:21:40;;;;;;;0.20;0.20;;;;;;;;;;5050246;28;20052;-71